Time;durP1;ratioP1;P1;durP2;ratioP2;P2;SDS_P1;SDS_P2;PMS_P1;PMS_P2;Temp;Humidity;BMP_temperature;BMP_pressure;BME280_temperature;BME280_humidity;BME280_pressure;Samples;Min_cycle;Max_cycle;Signal;HPM_P1;HPM_P2
2021/06/28 00:14:49;;;;;;;3.40;3.17;;;;;;;20.93;69.02;99770.03;1576881;84;21127;-90
2021/06/28 00:17:42;;;;;;;3.10;3.00;;;;;;;20.72;69.05;99734.53;1581232;88;21100;-90
2021/06/28 00:29:48;;;;;;;;;;;;;;;21.53;68.63;99847.55;1583190;86;21030;-91
2021/06/28 00:32:57;;;;;;;;;;;;;;;;;;;;;
2021/06/28 00:48:41;;;;;;;3.25;3.05;;;;;;;21.37;69.24;99852.12;1693735;81;21096;-88
2021/06/28 00:51:12;;;;;;;5.65;3.83;;;;;;;21.41;68.97;99851.59;1663863;84;21045;-89
2021/06/28 00:53:40;;;;;;;4.03;3.72;;;;;;;21.38;68.93;99851.61;1698181;82;21049;-87
2021/06/28 00:56:20;;;;;;;3.47;3.17;;;;;;;21.34;68.87;99857.27;1718321;80;21014;-87
2021/06/28 00:58:53;;;;;;;3.37;3.08;;;;;;;21.33;68.97;99865.16;1689682;82;21082;-87
2021/06/28 01:01:40;;;;;;;4.97;2.92;;;;;;;21.34;68.76;99861.34;1662069;81;21153;-90
2021/06/28 01:04:15;;;;;;;3.10;2.90;;;;;;;21.37;68.58;99864.33;1678207;82;21100;-89
2021/06/28 01:06:48;;;;;;;3.60;3.30;;;;;;;21.39;68.42;99854.57;1676842;81;21226;-88
2021/06/28 01:09:42;;;;;;;3.30;2.58;;;;;;;21.39;68.12;99860.80;1670993;83;21029;-89
2021/06/28 01:12:17;;;;;;;2.58;2.35;;;;;;;21.42;68.03;99859.46;1682929;80;21137;-90
2021/06/28 01:18:32;;;;;;;3.10;3.00;;;;;;;21.42;67.87;99874.89;1731464;80;21017;-87
2021/06/28 01:24:23;;;;;;;2.62;2.52;;;;;;;21.30;68.51;99872.45;1680825;82;22490;31
2021/06/28 01:29:51;;;;;;;2.70;2.55;;;;;;;21.27;68.45;99879.80;1624824;84;21130;-88
2021/06/28 01:32:26;;;;;;;3.12;2.92;;;;;;;21.29;68.17;99883.05;1660678;84;21473;-87
2021/06/28 01:35:19;;;;;;;;;;;;;;;;;;;;;
2021/06/28 01:38:03;;;;;;;3.65;2.98;;;;;;;19.97;68.07;99673.52;1596416;85;21149;-86
2021/06/28 01:40:54;;;;;;;3.85;3.33;;;;;;;21.12;68.18;99877.34;1634212;85;21124;-88
2021/06/28 01:43:48;;;;;;;4.83;3.77;;;;;;;21.11;68.25;99877.05;1666949;84;21016;-85
2021/06/28 01:46:21;;;;;;;4.05;3.20;;;;;;;21.04;68.22;99877.88;1557875;88;21125;-87
2021/06/28 01:48:48;;;;;;;2.95;2.85;;;;;;;20.97;68.45;99878.13;1586828;84;21161;-87
2021/06/28 01:51:24;;;;;;;3.25;2.47;;;;;;;20.95;68.46;99880.29;1681155;83;21061;-87
2021/06/28 01:53:58;;;;;;;2.85;2.65;;;;;;;20.95;68.43;99873.52;1678781;82;21172;-88
2021/06/28 01:56:26;;;;;;;2.85;2.65;;;;;;;19.68;68.31;99670.95;1652959;84;21130;-86
2021/06/28 02:02:08;;;;;;;3.83;3.45;;;;;;;20.91;68.46;99868.92;1629379;83;21180;-87
2021/06/28 02:04:56;;;;;;;2.72;2.52;;;;;;;20.85;68.44;99879.45;1682898;82;21060;-87
2021/06/28 02:07:31;;;;;;;2.95;2.60;;;;;;;20.85;68.48;99880.80;1630367;86;21036;-87
2021/06/28 02:10:14;;;;;;;2.83;2.72;;;;;;;20.78;68.49;99884.59;1671166;84;21022;-86
2021/06/28 02:12:40;;;;;;;2.92;2.83;;;;;;;20.70;68.67;99883.77;1653606;83;21562;-87
2021/06/28 02:15:22;;;;;;;4.95;3.10;;;;;;;20.65;68.89;99891.06;1628116;85;21027;-85
2021/06/28 02:17:57;;;;;;;2.67;2.45;;;;;;;20.65;68.97;99887.00;1644384;84;21094;-86
2021/06/28 02:20:32;;;;;;;3.67;3.22;;;;;;;20.64;68.59;99892.93;1649297;85;21168;-88
2021/06/28 02:26:05;;;;;;;2.65;2.58;;;;;;;20.57;68.97;99897.23;1665546;84;21212;-87
2021/06/28 02:28:44;;;;;;;2.87;2.58;;;;;;;20.56;68.88;99888.02;1617291;86;21568;-87
2021/06/28 02:31:24;;;;;;;3.33;2.75;;;;;;;20.54;68.93;99895.04;1614908;86;21067;-84
2021/06/28 02:34:02;;;;;;;2.77;2.67;;;;;;;20.51;69.06;99892.05;1622196;85;21136;-87
2021/06/28 02:39:22;;;;;;;3.33;2.83;;;;;;;20.48;69.09;99901.52;1688308;82;21880;-86
2021/06/28 02:42:28;;;;;;;2.75;2.65;;;;;;;19.17;68.87;99688.53;1697495;82;21216;-86
2021/06/28 02:44:59;;;;;;;4.95;3.40;;;;;;;20.47;69.01;99896.36;1645728;83;21073;-86
2021/06/28 03:02:15;;;;;;;2.25;2.15;;;;;;;21.65;64.96;99914.25;1753464;77;28504;-88
2021/06/28 03:04:41;;;;;;;2.90;2.70;;;;;;;21.86;64.24;99912.33;1685972;81;21516;-86
2021/06/28 03:07:12;;;;;;;2.45;1.95;;;;;;;21.76;64.10;99911.80;1664257;82;21046;-87
2021/06/28 03:09:50;;;;;;;2.55;2.42;;;;;;;21.47;65.18;99908.27;1635896;85;21031;-86
2021/06/28 03:12:15;;;;;;;3.22;2.90;;;;;;;21.26;65.58;99902.00;1632850;80;21583;-86
2021/06/28 03:18:30;;;;;;;;;;;;;;;;;;;;;
2021/06/28 03:21:07;;;;;;;3.42;3.22;;;;;;;20.81;67.24;99915.73;1589545;86;21138;-86
2021/06/28 03:23:50;;;;;;;;;;;;;;;;;;;;;
2021/06/28 03:32:51;;;;;;;4.20;3.17;;;;;;;20.41;68.54;99909.87;1548611;89;21272;-88
2021/06/28 03:35:28;;;;;;;4.20;4.00;;;;;;;20.30;68.81;99910.09;1523317;92;21777;-88
2021/06/28 03:37:54;;;;;;;3.60;3.30;;;;;;;18.91;69.03;99712.39;1594294;87;21062;-87
2021/06/28 03:40:22;;;;;;;3.60;3.30;;;;;;;20.16;69.63;99928.70;1617384;86;20992;-87
2021/06/28 03:42:57;;;;;;;4.00;3.80;;;;;;;20.11;69.62;99919.20;1597208;86;21277;-87
2021/06/28 03:45:23;;;;;;;5.40;4.20;;;;;;;20.07;69.66;99918.09;1599309;87;21091;-86
2021/06/28 03:47:49;;;;;;;2.95;2.75;;;;;;;20.09;69.65;99913.23;1566561;89;21066;-86
2021/06/28 03:53:09;;;;;;;4.47;4.12;;;;;;;20.15;69.84;99920.30;1627646;86;21102;-88
2021/06/28 03:59:02;;;;;;;4.83;4.55;;;;;;;20.20;69.10;99921.14;1634024;83;21245;-90
2021/06/28 04:01:44;;;;;;;4.40;4.08;;;;;;;20.19;68.84;99930.87;1613791;86;21059;-86
2021/06/28 04:04:48;;;;;;;;;;;;;;;20.13;69.05;99930.56;1641845;85;21165;-87
2021/06/28 04:07:30;;;;;;;4.75;4.45;;;;;;;20.12;69.30;99935.72;1622598;86;20121;-88
2021/06/28 04:09:59;;;;;;;5.42;4.10;;;;;;;18.82;69.18;99745.28;1609988;86;21102;-85
2021/06/28 04:12:26;;;;;;;5.15;4.62;;;;;;;20.06;69.32;99929.46;1651140;83;21087;-86
2021/06/28 04:14:58;;;;;;;3.67;3.37;;;;;;;20.12;69.18;99930.30;1669374;83;21634;-86
2021/06/28 04:17:36;;;;;;;;;;;;;;;;;;;;;
2021/06/28 04:20:10;;;;;;;3.87;3.58;;;;;;;20.29;68.61;99934.19;1698754;82;21093;-86
2021/06/28 04:25:42;;;;;;;3.98;3.67;;;;;;;20.35;68.07;99917.70;1598192;87;21101;-87
2021/06/28 04:28:29;;;;;;;3.85;3.58;;;;;;;20.35;68.05;99926.37;1621345;86;21054;-87
2021/06/28 04:30:58;;;;;;;5.40;3.40;;;;;;;20.41;68.00;99915.28;1620297;86;21590;-89
2021/06/28 04:33:47;;;;;;;4.37;3.77;;;;;;;20.50;67.83;99927.78;1634559;84;21102;-89
2021/06/28 04:36:20;;;;;;;3.77;3.47;;;;;;;19.39;67.39;99726.77;1673029;83;21591;-90
2021/06/28 04:38:44;;;;;;;7.58;3.45;;;;;;;20.77;67.05;99926.28;1666797;83;21001;-88
2021/06/28 04:41:30;;;;;;;3.02;2.80;;;;;;;20.87;66.47;99922.81;1689023;83;21029;-89
2021/06/28 04:44:05;;;;;;;3.73;3.43;;;;;;;20.91;66.17;99914.97;1645497;85;21600;-88
2021/06/28 04:46:47;;;;;;;;;;;;;;;;;;;;;
2021/06/28 04:49:18;;;;;;;3.45;3.22;;;;;;;21.03;66.09;99912.81;1633808;84;21094;-86
2021/06/28 04:51:44;;;;;;;3.72;3.05;;;;;;;21.11;65.58;99923.11;1645080;84;21027;-88
2021/06/28 04:54:37;;;;;;;4.80;3.17;;;;;;;21.20;65.58;99924.22;1638030;84;21049;-86
2021/06/28 04:57:04;;;;;;;3.27;3.02;;;;;;;21.23;65.11;99932.37;1682539;81;21136;-86
2021/06/28 05:00:02;;;;;;;;;;;;;;;;;;;;;
2021/06/28 05:02:40;;;;;;;4.10;3.87;;;;;;;21.20;64.97;99932.34;1630822;84;21071;-90
2021/06/28 05:05:20;;;;;;;;;;;;;;;;;;;;;
2021/06/28 05:07:53;;;;;;;3.10;2.83;;;;;;;21.23;64.86;99935.59;1656629;85;21114;-86
2021/06/28 05:10:40;;;;;;;6.37;3.70;;;;;;;21.37;64.79;99921.80;1626371;85;21616;-88
2021/06/28 05:13:23;;;;;;;;;;;;;;;;;;;;;
2021/06/28 05:16:09;;;;;;;;;;;;;;;;;;;;;
2021/06/28 05:18:34;;;;;;;2.58;2.47;;;;;;;22.06;62.45;99921.79;1635656;82;21017;-87
2021/06/28 05:21:02;;;;;;;3.37;3.17;;;;;;;22.53;60.85;99921.14;1707883;82;21344;-86
2021/06/28 05:23:31;;;;;;;2.70;2.58;;;;;;;22.93;60.04;99915.23;1662899;82;21333;-87
2021/06/28 05:26:00;;;;;;;2.60;2.40;;;;;;;23.22;58.55;99907.17;1641223;85;21189;-86
2021/06/28 05:28:50;;;;;;;5.83;2.55;;;;;;;23.10;58.10;99882.27;1660865;85;21058;-87
2021/06/28 05:31:17;;;;;;;4.00;3.33;;;;;;;23.26;58.91;99908.78;1658804;85;21221;-87
2021/06/28 05:33:51;;;;;;;3.35;3.15;;;;;;;23.41;57.91;99909.20;1656577;84;21157;-85
2021/06/28 05:36:22;;;;;;;3.87;3.37;;;;;;;23.56;57.22;99891.95;1668893;84;21419;-86
2021/06/28 05:39:00;;;;;;;;;;;;;;;;;;;;;
2021/06/28 05:41:22;;;;;;;2.80;2.65;;;;;;;23.68;56.39;99897.84;1639069;84;21078;-91
2021/06/28 05:44:35;;;;;;;3.10;2.90;;;;;;;23.91;55.80;99879.95;1641459;84;21820;-89
2021/06/28 05:47:23;;;;;;;;;;;;;;;;;;;;;
2021/06/28 05:49:57;;;;;;;2.90;2.80;;;;;;;24.43;54.35;99884.23;1636356;85;21072;-92
2021/06/28 05:52:33;;;;;;;2.60;2.40;;;;;;;24.84;53.31;99891.34;1667581;84;21078;-86
2021/06/28 05:55:01;;;;;;;2.87;2.35;;;;;;;25.16;52.59;99891.71;1668529;83;21093;-84
2021/06/28 05:57:29;;;;;;;5.47;3.02;;;;;;;25.30;51.60;99899.44;1664298;84;21215;-83
2021/06/28 05:59:55;;;;;;;3.45;2.58;;;;;;;25.38;51.31;99891.12;1697773;82;21087;-83
2021/06/28 06:09:03;;;;;;;;;;;;;;;;;;;;;
2021/06/28 06:12:06;;;;;;;;;;;;;;;;;;;;;
2021/06/28 06:18:23;;;;;;;;;;;;;;;;;;;;;
2021/06/28 06:21:09;;;;;;;6.67;1.50;;;;;;;27.56;46.49;99928.52;1532010;89;21817;-85
2021/06/28 06:23:52;;;;;;;2.75;0.98;;;;;;;27.58;45.08;99933.69;1543571;88;21644;-83
2021/06/28 06:26:34;;;;;;;3.20;1.17;;;;;;;27.37;45.68;99929.28;1518186;92;21153;-84
2021/06/28 06:29:00;;;;;;;2.20;1.50;;;;;;;26.98;46.59;99926.02;1558589;89;21114;-83
2021/06/28 06:31:25;;;;;;;1.52;1.42;;;;;;;26.71;47.86;99929.64;1561598;88;22103;-83
2021/06/28 06:33:53;;;;;;;1.90;1.70;;;;;;;26.58;47.44;99932.61;1546480;91;21110;-83
2021/06/28 06:36:27;;;;;;;1.00;1.00;;;;;;;26.42;47.79;99932.66;1537404;91;21087;-84
2021/06/28 06:38:58;;;;;;;1.22;1.20;;;;;;;26.19;48.34;99940.75;1529697;90;21074;-85
2021/06/28 06:41:24;;;;;;;4.37;1.98;;;;;;;25.82;49.01;99942.50;1539848;91;21070;-81
2021/06/28 06:43:55;;;;;;;0.82;0.82;;;;;;;25.39;50.38;99950.85;1540349;91;21143;-83
2021/06/28 06:46:29;;;;;;;;;;;;;;;25.11;51.02;99947.68;1543125;91;21208;-84
2021/06/28 06:49:42;;;;;;;;;;;;;;;;;;;;;
2021/06/28 06:52:30;;;;;;;;;;;;;;;;;;;;;
2021/06/28 06:55:08;;;;;;;1.27;1.25;;;;;;;24.70;51.99;99955.87;1451910;93;21066;-83
2021/06/28 07:01:00;;;;;;;;;;;;;;;;;;;;;
2021/06/28 07:03:32;;;;;;;1.57;1.10;;;;;;;25.18;51.04;99941.31;1450440;97;22060;-84
2021/06/28 07:05:59;;;;;;;1.82;1.72;;;;;;;25.48;50.18;99954.26;1474254;95;21134;-83
2021/06/28 07:08:38;;;;;;;1.40;1.22;;;;;;;25.55;50.52;99957.42;1456479;96;21116;-83
2021/06/28 07:11:05;;;;;;;0.80;0.80;;;;;;;25.47;49.95;99968.46;1452485;96;21129;-83
2021/06/28 07:13:42;;;;;;;1.22;0.93;;;;;;;25.27;50.71;99964.68;1462541;94;21244;-82
2021/06/28 07:16:23;;;;;;;;;;;;;;;;;;;;;
2021/06/28 07:18:45;;;;;;;0.80;0.60;;;;;;;24.97;51.31;99962.61;1504498;90;21125;-83
2021/06/28 07:21:16;;;;;;;0.62;0.62;;;;;;;24.89;51.21;99961.34;1573956;89;21053;-83
2021/06/28 07:23:48;;;;;;;1.00;0.75;;;;;;;24.78;51.67;99972.13;1566596;89;21137;-83
2021/06/28 07:26:24;;;;;;;1.07;1.02;;;;;;;24.65;51.94;99970.36;1552800;89;21553;-83
2021/06/28 07:28:57;;;;;;;2.22;1.10;;;;;;;24.55;52.76;99969.69;1519823;92;21154;-83
2021/06/28 07:31:23;;;;;;;1.22;1.22;;;;;;;24.47;52.46;99971.91;1505845;92;21180;-82
2021/06/28 07:33:50;;;;;;;2.17;0.78;;;;;;;24.34;52.92;99972.61;1530889;90;21116;-81
2021/06/28 07:36:18;;;;;;;2.45;0.93;;;;;;;24.33;53.40;99974.25;1570334;89;21125;-83
2021/06/28 07:38:45;;;;;;;2.25;1.55;;;;;;;24.33;52.95;99961.44;1565284;89;21055;-83
2021/06/28 07:41:13;;;;;;;0.62;0.62;;;;;;;24.38;52.83;99960.03;1555930;89;21138;-85
2021/06/28 07:43:41;;;;;;;3.75;1.10;;;;;;;24.42;52.68;99971.16;1560823;91;21576;-83
2021/06/28 07:46:09;;;;;;;1.40;1.40;;;;;;;24.47;52.90;99966.47;1571094;89;21108;-82
2021/06/28 07:48:36;;;;;;;0.90;0.90;;;;;;;24.55;52.65;99969.13;1582232;88;21149;-84
2021/06/28 07:51:04;;;;;;;0.85;0.85;;;;;;;24.65;52.07;99970.36;1554804;90;21196;-85
2021/06/28 07:53:30;;;;;;;3.50;0.72;;;;;;;24.80;52.52;99964.47;1598742;87;21108;-83
2021/06/28 07:55:57;;;;;;;0.75;0.75;;;;;;;25.06;51.66;99958.92;1556339;90;21870;-83
2021/06/28 07:58:23;;;;;;;2.12;0.60;;;;;;;25.28;51.11;99957.56;1578566;88;21104;-84
2021/06/28 08:00:49;;;;;;;1.00;0.80;;;;;;;25.47;50.93;99955.35;1579896;89;21136;-81
2021/06/28 08:03:15;;;;;;;1.40;0.70;;;;;;;25.61;49.90;99967.14;1547936;90;21188;-81
2021/06/28 08:05:43;;;;;;;1.20;0.82;;;;;;;25.58;49.10;99959.54;1554679;88;21353;-83
2021/06/28 08:08:09;;;;;;;1.85;0.72;;;;;;;25.47;49.75;99966.27;1583357;88;21167;-84
2021/06/28 08:10:36;;;;;;;1.10;0.53;;;;;;;25.40;50.19;99966.66;1574741;90;21206;-84
2021/06/28 08:13:03;;;;;;;1.75;1.15;;;;;;;25.35;50.45;99970.82;1583110;88;21177;-82
2021/06/28 08:15:30;;;;;;;0.60;0.60;;;;;;;25.31;50.36;99971.96;1590378;88;21131;-83
2021/06/28 08:17:56;;;;;;;2.75;0.80;;;;;;;25.24;50.79;99982.42;1586296;89;21057;-83
2021/06/28 08:20:23;;;;;;;0.95;0.80;;;;;;;25.22;50.99;99981.34;1582658;88;21161;-81
2021/06/28 08:22:50;;;;;;;0.88;0.55;;;;;;;25.22;50.69;99980.52;1578750;88;21150;-85
2021/06/28 08:25:23;;;;;;;1.67;0.62;;;;;;;25.28;51.29;99985.37;1579690;88;21073;-86
2021/06/28 08:27:47;;;;;;;1.35;0.57;;;;;;;25.36;50.51;99985.53;1570487;89;21179;-86
2021/06/28 08:30:15;;;;;;;1.35;1.25;;;;;;;25.12;50.61;99934.31;1575211;88;21595;-83
2021/06/28 08:32:41;;;;;;;2.80;0.88;;;;;;;25.48;50.82;99983.70;1576909;89;21143;-83
2021/06/28 08:35:09;;;;;;;1.37;1.07;;;;;;;24.91;50.40;99899.16;1585467;88;21690;-84
2021/06/28 08:37:37;;;;;;;3.42;1.20;;;;;;;25.33;50.56;99983.38;1569315;89;21202;-87
2021/06/28 08:40:07;;;;;;;1.07;0.90;;;;;;;25.27;50.66;99985.13;1557673;90;21076;-84
2021/06/28 08:42:33;;;;;;;1.92;0.80;;;;;;;25.34;50.78;99988.31;1573253;89;21069;-86
2021/06/28 08:44:59;;;;;;;0.60;0.60;;;;;;;25.41;50.48;99977.81;1598334;87;21084;-81
2021/06/28 08:47:27;;;;;;;2.00;0.68;;;;;;;25.50;50.68;99986.15;1590515;87;21777;-89
2021/06/28 08:49:57;;;;;;;4.15;1.10;;;;;;;25.66;50.40;99988.90;1576592;88;22242;-86
2021/06/28 08:52:24;;;;;;;0.62;0.62;;;;;;;25.81;49.04;99985.11;1583788;88;22179;-84
2021/06/28 08:54:50;;;;;;;0.75;0.75;;;;;;;25.74;48.44;99985.48;1607936;86;21628;-84
2021/06/28 08:57:18;;;;;;;1.05;0.95;;;;;;;25.68;48.97;99992.14;1599393;87;21170;-85
2021/06/28 08:59:44;;;;;;;1.37;1.10;;;;;;;25.61;49.25;99995.23;1566882;89;21176;-90
2021/06/28 09:02:10;;;;;;;0.98;0.78;;;;;;;25.11;49.37;99917.69;1578707;89;21143;-86
2021/06/28 09:04:37;;;;;;;2.22;0.95;;;;;;;25.52;49.19;99992.11;1570239;89;21326;-89
2021/06/28 09:07:27;;;;;;;1.12;0.98;;;;;;;25.43;49.75;99998.25;1583165;89;21125;-84
2021/06/28 09:09:54;;;;;;;1.25;1.05;;;;;;;25.40;49.68;100002.92;1577714;89;21924;-85
2021/06/28 09:12:21;;;;;;;1.17;1.12;;;;;;;25.38;49.49;100004.34;1574995;88;21174;-85
2021/06/28 09:14:55;;;;;;;0.88;0.88;;;;;;;25.35;49.51;100008.45;1559555;90;21197;-86
2021/06/28 09:17:28;;;;;;;2.27;1.25;;;;;;;25.36;49.34;100004.62;1587511;88;21095;-83
2021/06/28 09:20:16;;;;;;;1.45;0.98;;;;;;;25.38;49.98;100007.87;1569246;89;21614;-82
2021/06/28 09:22:44;;;;;;;3.12;0.90;;;;;;;25.40;49.01;100004.84;1602804;86;21157;-87
2021/06/28 09:25:33;;;;;;;0.80;0.72;;;;;;;25.37;49.40;100013.08;1598727;86;21701;-85
2021/06/28 09:28:01;;;;;;;1.77;0.53;;;;;;;25.42;49.26;100004.80;1581697;89;21734;-83
2021/06/28 09:30:27;;;;;;;0.90;0.57;;;;;;;25.53;49.34;99999.20;1579164;89;21031;-84
2021/06/28 09:33:01;;;;;;;1.67;0.72;;;;;;;25.64;49.19;100004.20;1580684;88;21141;-82
2021/06/28 09:35:38;;;;;;;1.30;0.93;;;;;;;25.80;49.12;100006.11;1604926;87;21654;-85
2021/06/28 09:38:11;;;;;;;0.60;0.60;;;;;;;25.93;48.34;99999.67;1600249;88;21180;-85
2021/06/28 09:40:37;;;;;;;2.35;0.90;;;;;;;25.94;48.01;100004.05;1590466;88;22524;-84
2021/06/28 09:43:26;;;;;;;0.75;0.75;;;;;;;25.88;48.17;100011.48;1602742;88;21075;-87
2021/06/28 09:45:57;;;;;;;0.78;0.75;;;;;;;25.85;48.50;100012.06;1584083;88;21134;-87
2021/06/28 09:48:30;;;;;;;1.20;1.10;;;;;;;25.84;48.83;100013.99;1586049;88;21056;-84
2021/06/28 09:51:18;;;;;;;2.30;1.15;;;;;;;25.86;48.52;100015.03;1566459;90;21107;-89
2021/06/28 09:53:48;;;;;;;2.65;0.78;;;;;;;25.86;48.88;100015.59;1572925;90;21067;-86
2021/06/28 09:56:46;;;;;;;2.20;1.10;;;;;;;25.80;48.38;100010.21;1570740;88;21159;-88
2021/06/28 09:59:28;;;;;;;0.90;0.90;;;;;;;25.69;48.47;100012.05;1596864;88;21144;-85
2021/06/28 10:02:25;;;;;;;1.17;1.00;;;;;;;25.59;48.57;100015.75;1574355;89;21185;-86
2021/06/28 10:07:33;;;;;;;1.35;1.35;;;;;;;25.63;49.47;100024.96;1599763;88;21040;-87
2021/06/28 10:10:22;;;;;;;1.50;1.50;;;;;;;25.73;49.10;100025.34;1587921;88;21633;-84
2021/06/28 10:13:01;;;;;;;1.00;1.00;;;;;;;25.80;48.63;100015.67;1583556;89;21153;-84
2021/06/28 10:15:33;;;;;;;0.88;0.88;;;;;;;25.83;48.45;100017.81;1593103;88;21146;-85
2021/06/28 10:18:00;;;;;;;1.67;0.82;;;;;;;25.54;48.68;99960.72;1599954;88;21042;-87
2021/06/28 10:20:30;;;;;;;0.80;0.80;;;;;;;26.04;48.52;100021.61;1583920;88;21105;-84
2021/06/28 10:23:04;;;;;;;1.25;0.70;;;;;;;26.11;47.62;100017.94;1605243;88;21082;-87
2021/06/28 10:25:34;;;;;;;2.33;0.90;;;;;;;26.12;47.43;100008.61;1568325;89;21126;-85
2021/06/28 10:28:04;;;;;;;0.80;0.80;;;;;;;26.10;47.40;100016.30;1577866;90;21110;-87
2021/06/28 10:30:36;;;;;;;1.15;0.88;;;;;;;26.05;47.24;100015.05;1560615;90;21662;-86
2021/06/28 10:33:09;;;;;;;2.05;0.68;;;;;;;25.99;48.02;100010.76;1567897;89;21111;-86
2021/06/28 10:35:41;;;;;;;2.55;0.80;;;;;;;25.92;47.62;100015.26;1592804;88;21093;-87
2021/06/28 10:38:15;;;;;;;1.22;1.10;;;;;;;25.82;48.29;100020.30;1571442;89;21104;-86
2021/06/28 10:40:58;;;;;;;2.05;1.77;;;;;;;25.79;48.22;100025.55;1565068;89;21677;-85
2021/06/28 10:43:29;;;;;;;1.95;1.07;;;;;;;25.67;48.55;100027.34;1542315;90;21210;-85
2021/06/28 10:45:58;;;;;;;1.30;1.30;;;;;;;25.60;48.81;100017.39;1566849;89;21201;-85
2021/06/28 10:48:28;;;;;;;0.75;0.75;;;;;;;25.63;48.98;100018.94;1575837;89;21116;-83
2021/06/28 10:51:05;;;;;;;1.55;1.45;;;;;;;25.74;49.28;100010.05;1558042;90;21058;-85
2021/06/28 10:53:39;;;;;;;0.85;0.82;;;;;;;25.96;48.81;100010.02;1572309;88;21054;-86
2021/06/28 10:56:32;;;;;;;1.25;0.75;;;;;;;26.17;48.28;100016.73;1573225;89;21740;-84
2021/06/28 10:59:06;;;;;;;1.40;0.85;;;;;;;26.33;46.91;100013.71;1588500;87;21136;-87
2021/06/28 11:01:48;;;;;;;0.57;0.57;;;;;;;26.40;46.28;100021.77;1592238;88;21208;-85
2021/06/28 11:04:28;;;;;;;0.95;0.95;;;;;;;26.42;46.42;100014.63;1583916;89;21181;-84
2021/06/28 11:07:06;;;;;;;4.05;0.78;;;;;;;26.50;46.39;100016.66;1569782;89;21570;-85
2021/06/28 11:09:54;;;;;;;2.60;0.90;;;;;;;26.60;46.17;100012.41;1588725;88;21064;-85
2021/06/28 11:12:35;;;;;;;3.15;0.50;;;;;;;26.74;45.99;100017.05;1597037;88;21073;-84
2021/06/28 11:15:21;;;;;;;0.88;0.88;;;;;;;26.88;44.88;100004.73;1607735;87;21121;-87
2021/06/28 11:17:52;;;;;;;3.40;1.00;;;;;;;26.89;44.73;100013.20;1609716;87;21549;-86
2021/06/28 11:20:31;;;;;;;3.85;1.07;;;;;;;26.89;45.01;100013.20;1582313;89;21101;-84
2021/06/28 11:23:17;;;;;;;0.78;0.78;;;;;;;26.87;44.54;100005.30;1582298;87;21078;-86
2021/06/28 11:25:56;;;;;;;1.30;0.53;;;;;;;26.76;44.18;100013.45;1608278;87;21052;-89
2021/06/28 11:28:36;;;;;;;1.35;0.47;;;;;;;26.67;44.77;100013.91;1614476;87;21225;-87
2021/06/28 11:31:10;;;;;;;0.60;0.57;;;;;;;26.67;44.80;100013.34;1606763;87;21084;-85
2021/06/28 11:33:46;;;;;;;0.65;0.62;;;;;;;26.72;43.77;100002.89;1609404;87;21047;-84
2021/06/28 11:36:33;;;;;;;1.57;0.55;;;;;;;26.74;42.42;100002.02;1609781;87;21166;-85
2021/06/28 11:39:24;;;;;;;1.17;0.47;;;;;;;26.59;41.90;99985.34;1573426;89;21226;-84
2021/06/28 11:42:22;;;;;;;2.80;0.78;;;;;;;26.55;42.48;100010.30;1576882;88;21170;-85
2021/06/28 11:44:52;;;;;;;1.80;0.42;;;;;;;26.34;42.67;99979.83;1582542;89;21116;-86
2021/06/28 11:47:48;;;;;;;3.52;0.40;;;;;;;26.50;42.54;100011.19;1584898;88;21253;-86
2021/06/28 11:50:36;;;;;;;1.27;0.60;;;;;;;26.40;42.63;100016.86;1561284;89;21568;-84
2021/06/28 11:53:13;;;;;;;2.92;0.62;;;;;;;26.32;43.06;100009.38;1586681;88;21080;-85
2021/06/28 11:55:48;;;;;;;1.25;0.30;;;;;;;25.17;43.03;99819.71;1549678;90;21092;-83
2021/06/28 11:58:15;;;;;;;0.62;0.60;;;;;;;26.32;43.05;100005.28;1573427;89;21629;-90
2021/06/28 12:00:42;;;;;;;1.05;0.70;;;;;;;26.32;43.13;100002.55;1584383;88;21116;-90
2021/06/28 12:03:26;;;;;;;0.45;0.40;;;;;;;26.33;43.50;100001.41;1583672;87;21165;-89
2021/06/28 12:05:52;;;;;;;0.82;0.55;;;;;;;26.32;43.49;99991.62;1594657;88;21144;-88
2021/06/28 12:08:25;;;;;;;1.82;0.65;;;;;;;25.48;43.64;99862.30;1591494;89;21090;-88
2021/06/28 12:11:00;;;;;;;1.12;0.50;;;;;;;26.30;43.44;99989.18;1597850;87;21209;-88
2021/06/28 12:13:40;;;;;;;1.57;0.40;;;;;;;26.28;43.09;99990.05;1570489;89;21114;-86
2021/06/28 12:16:23;;;;;;;19.02;0.95;;;;;;;26.29;43.34;99988.11;1561319;88;21234;-86
2021/06/28 12:19:08;;;;;;;3.30;1.05;;;;;;;26.31;43.47;99974.39;1539592;92;21176;-88
2021/06/28 12:21:40;;;;;;;2.35;0.75;;;;;;;26.35;43.19;99975.97;1609552;87;21188;-88
2021/06/28 12:24:18;;;;;;;1.27;0.55;;;;;;;26.40;43.39;99971.21;1608781;87;21073;-88
2021/06/28 12:27:17;;;;;;;4.25;0.47;;;;;;;26.46;43.35;99974.66;1581322;88;20991;-87
2021/06/28 12:29:46;;;;;;;0.65;0.50;;;;;;;26.48;42.78;99970.26;1590706;87;21101;-87
2021/06/28 12:32:28;;;;;;;1.72;0.78;;;;;;;26.46;42.36;99970.55;1580336;87;21022;-86
2021/06/28 12:35:03;;;;;;;2.58;0.60;;;;;;;26.46;42.46;99977.95;1606363;87;21040;-89
2021/06/28 12:37:43;;;;;;;2.27;0.50;;;;;;;26.46;42.67;99967.02;1594039;86;21049;-87
2021/06/28 12:40:24;;;;;;;1.00;0.47;;;;;;;26.47;43.03;99960.45;1572811;87;22139;-89
2021/06/28 12:42:55;;;;;;;0.50;0.50;;;;;;;26.49;42.85;99964.49;1569823;87;21054;-88
2021/06/28 12:45:34;;;;;;;0.57;0.40;;;;;;;26.47;42.48;99963.98;1563064;89;21275;-88
2021/06/28 12:48:04;;;;;;;3.40;0.65;;;;;;;26.47;42.68;99959.89;1550760;90;21133;-89
2021/06/28 12:50:36;;;;;;;0.40;0.40;;;;;;;26.47;42.75;99964.55;1575473;88;21040;-87
2021/06/28 12:53:17;;;;;;;0.80;0.72;;;;;;;26.49;43.08;99959.59;1611364;87;21232;-89
2021/06/28 12:55:46;;;;;;;3.62;0.70;;;;;;;26.46;42.63;99956.89;1596452;87;21375;-89
2021/06/28 12:58:22;;;;;;;0.85;0.60;;;;;;;26.41;43.25;99955.65;1600161;87;21176;-87
2021/06/28 13:00:53;;;;;;;2.15;1.05;;;;;;;26.44;43.30;99961.05;1591895;88;21116;-89
2021/06/28 13:03:24;;;;;;;1.00;0.95;;;;;;;26.53;43.41;99951.03;1581727;88;21209;-87
2021/06/28 13:05:54;;;;;;;1.45;0.50;;;;;;;26.63;43.12;99956.88;1604913;88;21589;-87
2021/06/28 13:08:31;;;;;;;0.50;0.50;;;;;;;26.69;42.52;99957.02;1586173;89;21163;-88
2021/06/28 13:11:07;;;;;;;1.22;0.60;;;;;;;26.74;42.84;99956.91;1580899;89;21059;-89
2021/06/28 13:14:06;;;;;;;0.75;0.72;;;;;;;26.15;42.63;99859.73;1565945;90;21163;-89
2021/06/28 13:19:13;;;;;;;0.98;0.95;;;;;;;26.82;42.76;99965.75;1576252;89;21563;-88
2021/06/28 13:21:57;;;;;;;0.70;0.70;;;;;;;26.85;43.16;99963.78;1597913;88;21129;-90
2021/06/28 13:24:27;;;;;;;0.53;0.53;;;;;;;26.90;42.82;99970.52;1594624;87;21116;-92
2021/06/28 13:27:08;;;;;;;0.95;0.40;;;;;;;26.96;42.30;99963.81;1592132;87;21154;-86
2021/06/28 13:29:45;;;;;;;0.90;0.57;;;;;;;26.96;41.81;99961.08;1574497;88;21112;-88
2021/06/28 13:32:27;;;;;;;0.80;0.80;;;;;;;26.92;42.20;99964.18;1553783;91;21156;-88
2021/06/28 13:35:00;;;;;;;0.53;0.53;;;;;;;26.94;42.45;99957.05;1603847;87;21117;-88
2021/06/28 13:37:33;;;;;;;0.90;0.90;;;;;;;26.97;41.83;99955.04;1586096;85;21070;-89
2021/06/28 13:40:03;;;;;;;1.15;0.62;;;;;;;27.00;41.58;99955.23;1591491;86;21063;-90
2021/06/28 13:42:35;;;;;;;1.20;0.70;;;;;;;27.06;41.10;99947.73;1570697;90;21100;-87
2021/06/28 13:45:19;;;;;;;3.90;0.85;;;;;;;27.09;41.24;99950.42;1558890;90;21126;-88
2021/06/28 13:48:06;;;;;;;1.15;1.05;;;;;;;27.12;41.36;99949.78;1572155;89;21385;-88
2021/06/28 13:50:45;;;;;;;0.88;0.45;;;;;;;27.14;41.46;99954.39;1603015;87;21073;-88
2021/06/28 13:53:19;;;;;;;0.85;0.45;;;;;;;27.17;41.53;99951.05;1572818;88;21079;-90
2021/06/28 13:55:55;;;;;;;4.13;0.60;;;;;;;27.18;41.07;99947.17;1542924;91;21172;-88
2021/06/28 13:58:28;;;;;;;0.40;0.30;;;;;;;27.17;40.98;99954.58;1588175;87;21072;-88
2021/06/28 14:00:58;;;;;;;0.40;0.40;;;;;;;27.15;41.15;99958.19;1615289;87;21140;-88
2021/06/28 14:03:25;;;;;;;6.33;0.60;;;;;;;27.15;40.87;99952.72;1592667;87;21807;-89
2021/06/28 14:05:51;;;;;;;0.30;0.30;;;;;;;27.17;40.96;99952.41;1600486;87;21042;-88
2021/06/28 14:08:21;;;;;;;0.82;0.70;;;;;;;27.15;40.64;99959.55;1595229;87;21120;-90
2021/06/28 14:10:51;;;;;;;3.12;0.78;;;;;;;27.11;41.09;99972.80;1579071;88;21089;-90
2021/06/28 14:13:21;;;;;;;1.07;0.45;;;;;;;27.07;41.33;99964.94;1603210;87;21132;-87
2021/06/28 14:15:49;;;;;;;0.53;0.40;;;;;;;27.03;41.34;99957.10;1594724;87;21434;-87
2021/06/28 14:18:15;;;;;;;1.62;0.65;;;;;;;26.98;41.74;99952.57;1583292;89;21133;-88
2021/06/28 14:20:42;;;;;;;3.27;0.65;;;;;;;27.00;41.89;99959.91;1594140;87;21123;-88
2021/06/28 14:23:08;;;;;;;0.50;0.50;;;;;;;27.05;41.70;99962.54;1598913;87;21112;-88